sensor_id;sensor_type;location;lat;lon;timestamp;P1;durP1;ratioP1;P2;durP2;ratioP2
29854;SDS011;16733;48.738;9.106;2023-08-30T00:00:53;5.63;;;3.88;;
29854;SDS011;16733;48.738;9.106;2023-08-30T00:03:19;5.90;;;4.05;;
29854;SDS011;16733;48.738;9.106;2023-08-30T00:05:45;4.78;;;3.67;;
29854;SDS011;16733;48.738;9.106;2023-08-30T00:08:11;6.88;;;3.58;;
29854;SDS011;16733;48.738;9.106;2023-08-30T00:13:10;4.88;;;3.15;;
29854;SDS011;16733;48.738;9.106;2023-08-30T00:15:36;4.95;;;3.40;;
29854;SDS011;16733;48.738;9.106;2023-08-30T00:18:02;5.10;;;4.10;;
29854;SDS011;16733;48.738;9.106;2023-08-30T00:20:29;6.43;;;3.40;;
29854;SDS011;16733;48.738;9.106;2023-08-30T00:22:55;5.28;;;3.50;;
29854;SDS011;16733;48.738;9.106;2023-08-30T00:25:20;6.18;;;3.55;;
29854;SDS011;16733;48.738;9.106;2023-08-30T00:27:46;6.72;;;3.53;;
29854;SDS011;16733;48.738;9.106;2023-08-30T00:30:12;5.15;;;3.65;;
29854;SDS011;16733;48.738;9.106;2023-08-30T00:32:38;5.70;;;3.70;;
29854;SDS011;16733;48.738;9.106;2023-08-30T00:35:05;4.22;;;3.65;;
29854;SDS011;16733;48.738;9.106;2023-08-30T00:37:31;5.15;;;3.88;;
29854;SDS011;16733;48.738;9.106;2023-08-30T00:39:57;8.10;;;4.00;;
29854;SDS011;16733;48.738;9.106;2023-08-30T00:42:24;4.13;;;3.47;;
29854;SDS011;16733;48.738;9.106;2023-08-30T00:44:51;4.97;;;4.18;;
29854;SDS011;16733;48.738;9.106;2023-08-30T00:47:17;4.35;;;3.53;;
29854;SDS011;16733;48.738;9.106;2023-08-30T00:49:43;4.60;;;3.47;;
29854;SDS011;16733;48.738;9.106;2023-08-30T00:52:09;4.95;;;3.80;;
29854;SDS011;16733;48.738;9.106;2023-08-30T00:54:35;4.18;;;3.40;;
29854;SDS011;16733;48.738;9.106;2023-08-30T00:57:01;6.82;;;3.78;;
29854;SDS011;16733;48.738;9.106;2023-08-30T00:59:28;3.83;;;3.42;;
29854;SDS011;16733;48.738;9.106;2023-08-30T01:01:55;5.00;;;3.78;;
29854;SDS011;16733;48.738;9.106;2023-08-30T01:04:21;5.57;;;4.28;;
29854;SDS011;16733;48.738;9.106;2023-08-30T01:06:48;5.32;;;3.25;;
29854;SDS011;16733;48.738;9.106;2023-08-30T01:09:14;5.22;;;4.00;;
29854;SDS011;16733;48.738;9.106;2023-08-30T01:11:45;5.22;;;3.97;;
29854;SDS011;16733;48.738;9.106;2023-08-30T01:14:13;4.43;;;3.42;;
29854;SDS011;16733;48.738;9.106;2023-08-30T01:16:41;5.40;;;4.13;;
29854;SDS011;16733;48.738;9.106;2023-08-30T01:19:14;8.98;;;3.38;;
29854;SDS011;16733;48.738;9.106;2023-08-30T01:24:09;4.35;;;3.17;;
29854;SDS011;16733;48.738;9.106;2023-08-30T01:29:09;4.50;;;2.92;;
29854;SDS011;16733;48.738;9.106;2023-08-30T01:31:37;3.90;;;3.00;;
29854;SDS011;16733;48.738;9.106;2023-08-30T01:34:03;3.60;;;3.00;;
29854;SDS011;16733;48.738;9.106;2023-08-30T01:36:30;6.63;;;3.45;;
29854;SDS011;16733;48.738;9.106;2023-08-30T01:38:57;3.50;;;3.15;;
29854;SDS011;16733;48.738;9.106;2023-08-30T01:41:25;3.95;;;3.08;;
29854;SDS011;16733;48.738;9.106;2023-08-30T01:43:51;5.20;;;3.15;;
29854;SDS011;16733;48.738;9.106;2023-08-30T01:46:18;6.10;;;3.22;;
29854;SDS011;16733;48.738;9.106;2023-08-30T01:48:45;4.13;;;3.35;;
29854;SDS011;16733;48.738;9.106;2023-08-30T01:51:12;10.77;;;3.58;;
29854;SDS011;16733;48.738;9.106;2023-08-30T01:53:38;4.38;;;3.88;;
29854;SDS011;16733;48.738;9.106;2023-08-30T01:56:05;4.25;;;3.53;;
29854;SDS011;16733;48.738;9.106;2023-08-30T01:58:31;5.10;;;3.80;;
29854;SDS011;16733;48.738;9.106;2023-08-30T02:00:57;4.68;;;3.45;;
29854;SDS011;16733;48.738;9.106;2023-08-30T02:03:23;8.73;;;3.38;;
29854;SDS011;16733;48.738;9.106;2023-08-30T02:08:21;5.45;;;3.70;;
29854;SDS011;16733;48.738;9.106;2023-08-30T02:10:55;4.80;;;3.83;;
29854;SDS011;16733;48.738;9.106;2023-08-30T02:13:25;5.40;;;3.92;;
29854;SDS011;16733;48.738;9.106;2023-08-30T02:15:52;6.50;;;4.15;;
29854;SDS011;16733;48.738;9.106;2023-08-30T02:18:18;6.15;;;4.25;;
29854;SDS011;16733;48.738;9.106;2023-08-30T02:20:45;6.72;;;4.75;;
29854;SDS011;16733;48.738;9.106;2023-08-30T02:23:11;6.95;;;4.38;;
29854;SDS011;16733;48.738;9.106;2023-08-30T02:25:37;12.25;;;4.72;;
29854;SDS011;16733;48.738;9.106;2023-08-30T02:28:03;8.98;;;5.32;;
29854;SDS011;16733;48.738;9.106;2023-08-30T02:30:29;10.40;;;5.72;;
29854;SDS011;16733;48.738;9.106;2023-08-30T02:32:55;6.78;;;4.68;;
29854;SDS011;16733;48.738;9.106;2023-08-30T02:35:21;5.63;;;4.20;;
29854;SDS011;16733;48.738;9.106;2023-08-30T02:37:47;10.40;;;4.80;;
29854;SDS011;16733;48.738;9.106;2023-08-30T02:40:13;10.55;;;4.20;;
29854;SDS011;16733;48.738;9.106;2023-08-30T02:42:39;4.93;;;4.10;;
29854;SDS011;16733;48.738;9.106;2023-08-30T02:45:05;7.30;;;4.75;;
29854;SDS011;16733;48.738;9.106;2023-08-30T02:47:32;8.27;;;5.47;;
29854;SDS011;16733;48.738;9.106;2023-08-30T02:49:57;8.48;;;4.43;;
29854;SDS011;16733;48.738;9.106;2023-08-30T02:52:23;9.90;;;3.80;;
29854;SDS011;16733;48.738;9.106;2023-08-30T02:54:49;10.73;;;4.65;;
29854;SDS011;16733;48.738;9.106;2023-08-30T02:57:15;10.00;;;4.63;;
29854;SDS011;16733;48.738;9.106;2023-08-30T02:59:41;10.38;;;4.53;;
29854;SDS011;16733;48.738;9.106;2023-08-30T03:02:07;7.78;;;4.70;;
29854;SDS011;16733;48.738;9.106;2023-08-30T03:04:33;6.70;;;4.38;;
29854;SDS011;16733;48.738;9.106;2023-08-30T03:06:59;13.77;;;5.05;;
29854;SDS011;16733;48.738;9.106;2023-08-30T03:09:25;8.82;;;4.80;;
29854;SDS011;16733;48.738;9.106;2023-08-30T03:11:51;6.10;;;4.22;;
29854;SDS011;16733;48.738;9.106;2023-08-30T03:14:17;8.18;;;5.35;;
29854;SDS011;16733;48.738;9.106;2023-08-30T03:16:43;6.60;;;4.85;;
29854;SDS011;16733;48.738;9.106;2023-08-30T03:19:11;6.85;;;4.38;;
29854;SDS011;16733;48.738;9.106;2023-08-30T03:21:37;6.30;;;4.38;;
29854;SDS011;16733;48.738;9.106;2023-08-30T03:24:03;5.32;;;4.35;;
29854;SDS011;16733;48.738;9.106;2023-08-30T03:26:29;7.03;;;4.53;;
29854;SDS011;16733;48.738;9.106;2023-08-30T03:28:55;8.80;;;4.82;;
29854;SDS011;16733;48.738;9.106;2023-08-30T03:31:21;8.48;;;4.65;;
29854;SDS011;16733;48.738;9.106;2023-08-30T03:33:48;8.27;;;5.28;;
29854;SDS011;16733;48.738;9.106;2023-08-30T03:36:15;6.28;;;4.47;;
29854;SDS011;16733;48.738;9.106;2023-08-30T03:38:41;7.15;;;5.10;;
29854;SDS011;16733;48.738;9.106;2023-08-30T03:41:08;7.57;;;5.47;;
29854;SDS011;16733;48.738;9.106;2023-08-30T03:43:34;7.25;;;5.03;;
29854;SDS011;16733;48.738;9.106;2023-08-30T03:46:00;6.75;;;4.78;;
29854;SDS011;16733;48.738;9.106;2023-08-30T03:48:28;5.80;;;4.15;;
29854;SDS011;16733;48.738;9.106;2023-08-30T03:50:54;6.32;;;4.68;;
29854;SDS011;16733;48.738;9.106;2023-08-30T03:53:20;6.72;;;5.00;;
29854;SDS011;16733;48.738;9.106;2023-08-30T03:55:46;6.03;;;4.38;;
29854;SDS011;16733;48.738;9.106;2023-08-30T03:58:12;6.95;;;4.50;;
29854;SDS011;16733;48.738;9.106;2023-08-30T04:00:38;9.30;;;4.57;;
29854;SDS011;16733;48.738;9.106;2023-08-30T04:03:05;6.70;;;4.38;;
29854;SDS011;16733;48.738;9.106;2023-08-30T04:05:32;5.85;;;4.30;;
29854;SDS011;16733;48.738;9.106;2023-08-30T04:07:59;5.75;;;4.82;;
29854;SDS011;16733;48.738;9.106;2023-08-30T04:10:24;8.88;;;4.28;;
29854;SDS011;16733;48.738;9.106;2023-08-30T04:12:51;5.90;;;4.30;;
29854;SDS011;16733;48.738;9.106;2023-08-30T04:15:17;6.65;;;4.60;;
29854;SDS011;16733;48.738;9.106;2023-08-30T04:17:42;9.07;;;4.72;;
29854;SDS011;16733;48.738;9.106;2023-08-30T04:20:09;6.68;;;4.63;;
29854;SDS011;16733;48.738;9.106;2023-08-30T04:22:35;6.28;;;4.47;;
29854;SDS011;16733;48.738;9.106;2023-08-30T04:25:01;8.30;;;3.90;;
29854;SDS011;16733;48.738;9.106;2023-08-30T04:27:28;7.18;;;4.53;;
29854;SDS011;16733;48.738;9.106;2023-08-30T04:29:54;6.97;;;4.47;;
29854;SDS011;16733;48.738;9.106;2023-08-30T04:32:20;7.00;;;4.95;;
29854;SDS011;16733;48.738;9.106;2023-08-30T04:34:45;8.00;;;4.68;;
29854;SDS011;16733;48.738;9.106;2023-08-30T04:37:11;5.80;;;4.50;;
29854;SDS011;16733;48.738;9.106;2023-08-30T04:39:38;5.93;;;4.35;;
29854;SDS011;16733;48.738;9.106;2023-08-30T04:42:04;6.78;;;4.65;;
29854;SDS011;16733;48.738;9.106;2023-08-30T04:44:30;6.70;;;4.72;;
29854;SDS011;16733;48.738;9.106;2023-08-30T04:46:57;8.90;;;4.53;;
29854;SDS011;16733;48.738;9.106;2023-08-30T04:49:23;9.40;;;4.65;;
29854;SDS011;16733;48.738;9.106;2023-08-30T04:51:54;7.00;;;4.85;;
29854;SDS011;16733;48.738;9.106;2023-08-30T04:54:20;11.98;;;5.18;;
29854;SDS011;16733;48.738;9.106;2023-08-30T04:56:46;9.20;;;4.68;;
29854;SDS011;16733;48.738;9.106;2023-08-30T04:59:12;6.45;;;4.80;;
29854;SDS011;16733;48.738;9.106;2023-08-30T05:01:38;6.47;;;4.22;;
29854;SDS011;16733;48.738;9.106;2023-08-30T05:04:07;8.85;;;4.63;;
29854;SDS011;16733;48.738;9.106;2023-08-30T05:06:33;7.50;;;5.28;;
29854;SDS011;16733;48.738;9.106;2023-08-30T05:08:59;9.70;;;5.65;;
29854;SDS011;16733;48.738;9.106;2023-08-30T05:11:25;9.70;;;5.82;;
29854;SDS011;16733;48.738;9.106;2023-08-30T05:13:51;7.85;;;5.45;;
29854;SDS011;16733;48.738;9.106;2023-08-30T05:16:16;8.82;;;5.65;;
29854;SDS011;16733;48.738;9.106;2023-08-30T05:18:42;9.23;;;5.88;;
29854;SDS011;16733;48.738;9.106;2023-08-30T05:21:08;9.18;;;6.20;;
29854;SDS011;16733;48.738;9.106;2023-08-30T05:23:34;8.45;;;4.95;;
29854;SDS011;16733;48.738;9.106;2023-08-30T05:26:00;7.20;;;4.85;;
29854;SDS011;16733;48.738;9.106;2023-08-30T05:28:26;7.72;;;5.30;;
29854;SDS011;16733;48.738;9.106;2023-08-30T05:30:52;7.00;;;4.78;;
29854;SDS011;16733;48.738;9.106;2023-08-30T05:33:18;9.65;;;5.22;;
29854;SDS011;16733;48.738;9.106;2023-08-30T05:35:44;7.05;;;4.43;;
29854;SDS011;16733;48.738;9.106;2023-08-30T05:38:10;7.63;;;4.65;;
29854;SDS011;16733;48.738;9.106;2023-08-30T05:40:36;5.90;;;4.35;;
29854;SDS011;16733;48.738;9.106;2023-08-30T05:43:07;6.18;;;4.60;;
29854;SDS011;16733;48.738;9.106;2023-08-30T05:45:33;7.35;;;4.90;;
29854;SDS011;16733;48.738;9.106;2023-08-30T05:47:59;6.75;;;4.78;;
29854;SDS011;16733;48.738;9.106;2023-08-30T05:50:25;11.10;;;5.35;;
29854;SDS011;16733;48.738;9.106;2023-08-30T05:52:51;8.63;;;4.43;;
29854;SDS011;16733;48.738;9.106;2023-08-30T05:55:18;8.60;;;4.38;;
29854;SDS011;16733;48.738;9.106;2023-08-30T05:57:44;5.88;;;4.25;;
29854;SDS011;16733;48.738;9.106;2023-08-30T06:00:10;5.10;;;3.85;;
29854;SDS011;16733;48.738;9.106;2023-08-30T06:02:38;6.97;;;4.25;;
29854;SDS011;16733;48.738;9.106;2023-08-30T06:05:04;7.40;;;4.35;;
29854;SDS011;16733;48.738;9.106;2023-08-30T06:07:30;6.63;;;4.40;;
29854;SDS011;16733;48.738;9.106;2023-08-30T06:09:56;5.38;;;3.97;;
29854;SDS011;16733;48.738;9.106;2023-08-30T06:12:22;6.40;;;4.55;;
29854;SDS011;16733;48.738;9.106;2023-08-30T06:14:48;12.45;;;4.88;;
29854;SDS011;16733;48.738;9.106;2023-08-30T06:17:20;5.75;;;3.92;;
29854;SDS011;16733;48.738;9.106;2023-08-30T06:19:46;8.27;;;4.18;;
29854;SDS011;16733;48.738;9.106;2023-08-30T06:22:13;7.07;;;4.05;;
29854;SDS011;16733;48.738;9.106;2023-08-30T06:24:39;8.85;;;4.30;;
29854;SDS011;16733;48.738;9.106;2023-08-30T06:27:05;6.15;;;4.68;;
29854;SDS011;16733;48.738;9.106;2023-08-30T06:29:31;7.85;;;4.20;;
29854;SDS011;16733;48.738;9.106;2023-08-30T06:31:57;6.28;;;4.68;;
29854;SDS011;16733;48.738;9.106;2023-08-30T06:34:24;6.55;;;4.18;;
29854;SDS011;16733;48.738;9.106;2023-08-30T06:36:50;6.30;;;4.38;;
29854;SDS011;16733;48.738;9.106;2023-08-30T06:39:17;8.05;;;4.60;;
29854;SDS011;16733;48.738;9.106;2023-08-30T06:41:43;7.43;;;3.97;;
29854;SDS011;16733;48.738;9.106;2023-08-30T06:44:09;5.40;;;3.70;;
29854;SDS011;16733;48.738;9.106;2023-08-30T06:46:35;7.20;;;4.22;;
29854;SDS011;16733;48.738;9.106;2023-08-30T06:49:02;7.35;;;4.65;;
29854;SDS011;16733;48.738;9.106;2023-08-30T06:51:29;5.25;;;4.03;;
29854;SDS011;16733;48.738;9.106;2023-08-30T06:53:55;10.32;;;4.28;;
29854;SDS011;16733;48.738;9.106;2023-08-30T06:56:25;5.72;;;3.88;;
29854;SDS011;16733;48.738;9.106;2023-08-30T06:58:51;7.00;;;4.70;;
29854;SDS011;16733;48.738;9.106;2023-08-30T07:01:17;5.70;;;4.00;;
29854;SDS011;16733;48.738;9.106;2023-08-30T07:03:43;7.03;;;4.70;;
29854;SDS011;16733;48.738;9.106;2023-08-30T07:06:09;5.05;;;4.22;;
29854;SDS011;16733;48.738;9.106;2023-08-30T07:08:35;5.85;;;4.35;;
29854;SDS011;16733;48.738;9.106;2023-08-30T07:11:01;6.13;;;4.28;;
29854;SDS011;16733;48.738;9.106;2023-08-30T07:13:27;6.72;;;4.60;;
29854;SDS011;16733;48.738;9.106;2023-08-30T07:15:53;5.28;;;4.03;;
29854;SDS011;16733;48.738;9.106;2023-08-30T07:18:19;8.40;;;4.05;;
29854;SDS011;16733;48.738;9.106;2023-08-30T07:20:45;7.18;;;4.28;;
29854;SDS011;16733;48.738;9.106;2023-08-30T07:23:11;5.65;;;4.28;;
29854;SDS011;16733;48.738;9.106;2023-08-30T07:25:38;6.45;;;4.68;;
29854;SDS011;16733;48.738;9.106;2023-08-30T07:28:04;5.80;;;3.55;;
29854;SDS011;16733;48.738;9.106;2023-08-30T07:30:31;9.18;;;4.20;;
29854;SDS011;16733;48.738;9.106;2023-08-30T07:32:57;4.95;;;3.83;;
29854;SDS011;16733;48.738;9.106;2023-08-30T07:35:23;6.57;;;3.78;;
29854;SDS011;16733;48.738;9.106;2023-08-30T07:37:49;5.88;;;4.13;;
29854;SDS011;16733;48.738;9.106;2023-08-30T07:40:18;4.65;;;3.53;;
29854;SDS011;16733;48.738;9.106;2023-08-30T07:42:45;5.15;;;3.38;;
29854;SDS011;16733;48.738;9.106;2023-08-30T07:45:12;5.40;;;3.88;;
29854;SDS011;16733;48.738;9.106;2023-08-30T07:47:38;4.85;;;3.22;;
29854;SDS011;16733;48.738;9.106;2023-08-30T07:50:04;5.78;;;3.40;;
29854;SDS011;16733;48.738;9.106;2023-08-30T07:52:30;5.13;;;3.83;;
29854;SDS011;16733;48.738;9.106;2023-08-30T07:54:56;6.07;;;3.35;;
29854;SDS011;16733;48.738;9.106;2023-08-30T07:57:22;3.58;;;3.22;;
29854;SDS011;16733;48.738;9.106;2023-08-30T07:59:48;4.53;;;3.35;;
29854;SDS011;16733;48.738;9.106;2023-08-30T08:02:14;5.57;;;3.53;;
29854;SDS011;16733;48.738;9.106;2023-08-30T08:04:40;3.25;;;2.88;;
29854;SDS011;16733;48.738;9.106;2023-08-30T08:07:07;5.78;;;3.58;;
29854;SDS011;16733;48.738;9.106;2023-08-30T08:09:32;5.97;;;3.75;;
29854;SDS011;16733;48.738;9.106;2023-08-30T08:11:59;5.15;;;3.10;;
29854;SDS011;16733;48.738;9.106;2023-08-30T08:14:25;5.10;;;3.10;;
29854;SDS011;16733;48.738;9.106;2023-08-30T08:16:51;4.70;;;3.45;;
29854;SDS011;16733;48.738;9.106;2023-08-30T08:19:17;4.75;;;3.40;;
29854;SDS011;16733;48.738;9.106;2023-08-30T08:21:43;4.82;;;3.83;;
29854;SDS011;16733;48.738;9.106;2023-08-30T08:24:09;7.63;;;3.60;;
29854;SDS011;16733;48.738;9.106;2023-08-30T08:26:35;4.10;;;3.10;;
29854;SDS011;16733;48.738;9.106;2023-08-30T08:29:01;10.73;;;7.75;;
29854;SDS011;16733;48.738;9.106;2023-08-30T08:31:28;7.65;;;4.05;;
29854;SDS011;16733;48.738;9.106;2023-08-30T08:34:09;4.30;;;3.65;;
29854;SDS011;16733;48.738;9.106;2023-08-30T08:36:35;5.40;;;4.05;;
29854;SDS011;16733;48.738;9.106;2023-08-30T08:39:01;4.20;;;3.25;;
29854;SDS011;16733;48.738;9.106;2023-08-30T08:41:31;4.68;;;3.40;;
29854;SDS011;16733;48.738;9.106;2023-08-30T08:44:00;7.07;;;3.22;;
29854;SDS011;16733;48.738;9.106;2023-08-30T08:46:26;7.25;;;3.45;;
29854;SDS011;16733;48.738;9.106;2023-08-30T08:48:54;4.57;;;3.67;;
29854;SDS011;16733;48.738;9.106;2023-08-30T08:51:21;5.07;;;3.60;;
29854;SDS011;16733;48.738;9.106;2023-08-30T08:53:49;4.45;;;3.40;;
29854;SDS011;16733;48.738;9.106;2023-08-30T08:56:15;4.70;;;3.92;;
29854;SDS011;16733;48.738;9.106;2023-08-30T08:58:41;4.35;;;3.47;;
29854;SDS011;16733;48.738;9.106;2023-08-30T09:01:08;5.82;;;3.60;;
29854;SDS011;16733;48.738;9.106;2023-08-30T09:03:34;3.83;;;2.75;;
29854;SDS011;16733;48.738;9.106;2023-08-30T09:06:01;6.32;;;3.78;;
29854;SDS011;16733;48.738;9.106;2023-08-30T09:08:28;6.00;;;3.17;;
29854;SDS011;16733;48.738;9.106;2023-08-30T09:10:54;4.80;;;3.50;;
29854;SDS011;16733;48.738;9.106;2023-08-30T09:13:20;4.22;;;3.17;;
29854;SDS011;16733;48.738;9.106;2023-08-30T09:15:47;4.20;;;3.20;;
29854;SDS011;16733;48.738;9.106;2023-08-30T09:18:17;4.97;;;3.20;;
29854;SDS011;16733;48.738;9.106;2023-08-30T09:20:43;3.85;;;2.53;;
29854;SDS011;16733;48.738;9.106;2023-08-30T09:23:19;5.35;;;3.08;;
29854;SDS011;16733;48.738;9.106;2023-08-30T09:25:45;2.78;;;2.47;;
29854;SDS011;16733;48.738;9.106;2023-08-30T09:28:11;4.35;;;2.90;;
29854;SDS011;16733;48.738;9.106;2023-08-30T09:30:38;3.45;;;2.40;;
29854;SDS011;16733;48.738;9.106;2023-08-30T09:33:04;5.90;;;3.03;;
29854;SDS011;16733;48.738;9.106;2023-08-30T09:35:31;2.83;;;2.30;;
29854;SDS011;16733;48.738;9.106;2023-08-30T09:37:57;4.90;;;2.90;;
29854;SDS011;16733;48.738;9.106;2023-08-30T09:40:23;6.00;;;2.67;;
29854;SDS011;16733;48.738;9.106;2023-08-30T09:42:49;3.97;;;2.67;;
29854;SDS011;16733;48.738;9.106;2023-08-30T09:45:18;3.33;;;2.42;;
29854;SDS011;16733;48.738;9.106;2023-08-30T09:47:51;2.00;;;1.80;;
29854;SDS011;16733;48.738;9.106;2023-08-30T09:50:18;2.38;;;1.85;;
29854;SDS011;16733;48.738;9.106;2023-08-30T09:52:45;3.53;;;1.83;;
29854;SDS011;16733;48.738;9.106;2023-08-30T09:55:12;2.50;;;1.90;;
29854;SDS011;16733;48.738;9.106;2023-08-30T09:57:39;2.42;;;1.63;;
29854;SDS011;16733;48.738;9.106;2023-08-30T10:00:05;5.32;;;2.15;;
29854;SDS011;16733;48.738;9.106;2023-08-30T10:02:32;1.90;;;1.42;;
29854;SDS011;16733;48.738;9.106;2023-08-30T10:04:58;1.92;;;1.70;;
29854;SDS011;16733;48.738;9.106;2023-08-30T10:07:24;2.35;;;1.70;;
29854;SDS011;16733;48.738;9.106;2023-08-30T10:09:51;3.92;;;2.17;;
29854;SDS011;16733;48.738;9.106;2023-08-30T10:12:20;2.20;;;1.88;;
29854;SDS011;16733;48.738;9.106;2023-08-30T10:14:47;3.80;;;2.20;;
29854;SDS011;16733;48.738;9.106;2023-08-30T10:17:14;6.13;;;1.98;;
29854;SDS011;16733;48.738;9.106;2023-08-30T10:19:42;2.60;;;2.30;;
29854;SDS011;16733;48.738;9.106;2023-08-30T10:22:09;3.33;;;2.22;;
29854;SDS011;16733;48.738;9.106;2023-08-30T10:27:25;4.05;;;1.92;;
29854;SDS011;16733;48.738;9.106;2023-08-30T10:29:52;2.20;;;1.77;;
29854;SDS011;16733;48.738;9.106;2023-08-30T10:32:21;4.32;;;1.85;;
29854;SDS011;16733;48.738;9.106;2023-08-30T10:34:48;2.13;;;1.70;;
29854;SDS011;16733;48.738;9.106;2023-08-30T10:37:14;2.95;;;1.77;;
29854;SDS011;16733;48.738;9.106;2023-08-30T10:39:41;2.72;;;1.67;;
29854;SDS011;16733;48.738;9.106;2023-08-30T10:42:11;2.17;;;1.80;;
29854;SDS011;16733;48.738;9.106;2023-08-30T10:44:49;2.00;;;1.65;;
29854;SDS011;16733;48.738;9.106;2023-08-30T10:47:22;5.28;;;1.73;;
29854;SDS011;16733;48.738;9.106;2023-08-30T10:49:53;2.80;;;1.60;;
29854;SDS011;16733;48.738;9.106;2023-08-30T10:52:20;3.15;;;1.67;;
29854;SDS011;16733;48.738;9.106;2023-08-30T10:54:46;2.33;;;1.55;;
29854;SDS011;16733;48.738;9.106;2023-08-30T10:57:12;1.45;;;1.30;;
29854;SDS011;16733;48.738;9.106;2023-08-30T10:59:39;6.00;;;1.73;;
29854;SDS011;16733;48.738;9.106;2023-08-30T11:02:05;2.40;;;1.50;;
29854;SDS011;16733;48.738;9.106;2023-08-30T11:04:32;2.47;;;1.90;;
29854;SDS011;16733;48.738;9.106;2023-08-30T11:06:58;6.05;;;1.42;;
29854;SDS011;16733;48.738;9.106;2023-08-30T11:09:24;2.33;;;1.15;;
29854;SDS011;16733;48.738;9.106;2023-08-30T11:11:50;2.17;;;1.40;;
29854;SDS011;16733;48.738;9.106;2023-08-30T11:14:17;1.45;;;1.30;;
29854;SDS011;16733;48.738;9.106;2023-08-30T11:16:43;1.80;;;1.40;;
29854;SDS011;16733;48.738;9.106;2023-08-30T11:19:10;1.42;;;1.23;;
29854;SDS011;16733;48.738;9.106;2023-08-30T11:21:37;1.80;;;1.00;;
29854;SDS011;16733;48.738;9.106;2023-08-30T11:24:03;1.55;;;1.08;;
29854;SDS011;16733;48.738;9.106;2023-08-30T11:26:29;3.40;;;1.30;;
29854;SDS011;16733;48.738;9.106;2023-08-30T11:28:56;12.32;;;1.10;;
29854;SDS011;16733;48.738;9.106;2023-08-30T11:31:22;1.77;;;1.23;;
29854;SDS011;16733;48.738;9.106;2023-08-30T11:33:54;2.85;;;1.20;;
29854;SDS011;16733;48.738;9.106;2023-08-30T11:36:22;3.70;;;1.27;;
29854;SDS011;16733;48.738;9.106;2023-08-30T11:38:49;5.20;;;1.50;;
29854;SDS011;16733;48.738;9.106;2023-08-30T11:41:15;2.15;;;1.60;;
29854;SDS011;16733;48.738;9.106;2023-08-30T11:43:41;1.52;;;1.42;;
29854;SDS011;16733;48.738;9.106;2023-08-30T11:46:08;1.63;;;1.45;;
29854;SDS011;16733;48.738;9.106;2023-08-30T11:48:34;1.52;;;1.30;;
29854;SDS011;16733;48.738;9.106;2023-08-30T11:51:00;2.53;;;1.48;;
29854;SDS011;16733;48.738;9.106;2023-08-30T11:53:26;1.88;;;1.40;;
29854;SDS011;16733;48.738;9.106;2023-08-30T11:55:53;4.97;;;1.83;;
29854;SDS011;16733;48.738;9.106;2023-08-30T11:58:19;3.15;;;1.85;;
29854;SDS011;16733;48.738;9.106;2023-08-30T12:00:45;8.20;;;2.53;;
29854;SDS011;16733;48.738;9.106;2023-08-30T12:03:14;6.75;;;2.30;;
29854;SDS011;16733;48.738;9.106;2023-08-30T12:05:44;5.50;;;2.47;;
29854;SDS011;16733;48.738;9.106;2023-08-30T12:08:17;6.65;;;2.75;;
29854;SDS011;16733;48.738;9.106;2023-08-30T12:10:43;5.93;;;2.95;;
29854;SDS011;16733;48.738;9.106;2023-08-30T12:13:19;3.92;;;3.17;;
29854;SDS011;16733;48.738;9.106;2023-08-30T12:15:45;4.13;;;3.10;;
29854;SDS011;16733;48.738;9.106;2023-08-30T12:18:11;3.83;;;2.92;;
29854;SDS011;16733;48.738;9.106;2023-08-30T12:20:37;4.72;;;2.83;;
29854;SDS011;16733;48.738;9.106;2023-08-30T12:23:03;6.38;;;3.22;;
29854;SDS011;16733;48.738;9.106;2023-08-30T12:25:29;5.75;;;3.30;;
29854;SDS011;16733;48.738;9.106;2023-08-30T12:27:57;6.15;;;3.28;;
29854;SDS011;16733;48.738;9.106;2023-08-30T12:30:23;4.80;;;3.90;;
29854;SDS011;16733;48.738;9.106;2023-08-30T12:32:49;4.82;;;2.92;;
29854;SDS011;16733;48.738;9.106;2023-08-30T12:35:15;7.95;;;4.20;;
29854;SDS011;16733;48.738;9.106;2023-08-30T12:37:42;2.35;;;2.00;;
29854;SDS011;16733;48.738;9.106;2023-08-30T12:40:08;3.28;;;2.50;;
29854;SDS011;16733;48.738;9.106;2023-08-30T12:42:34;5.18;;;2.50;;
29854;SDS011;16733;48.738;9.106;2023-08-30T12:45:00;2.70;;;2.25;;
29854;SDS011;16733;48.738;9.106;2023-08-30T12:47:28;3.70;;;3.40;;
29854;SDS011;16733;48.738;9.106;2023-08-30T12:49:55;5.28;;;3.83;;
29854;SDS011;16733;48.738;9.106;2023-08-30T12:52:21;2.72;;;2.17;;
29854;SDS011;16733;48.738;9.106;2023-08-30T12:54:47;4.82;;;3.60;;
29854;SDS011;16733;48.738;9.106;2023-08-30T12:57:13;5.78;;;3.85;;
29854;SDS011;16733;48.738;9.106;2023-08-30T12:59:39;7.57;;;4.13;;
29854;SDS011;16733;48.738;9.106;2023-08-30T13:02:05;5.25;;;4.03;;
29854;SDS011;16733;48.738;9.106;2023-08-30T13:04:31;4.90;;;3.63;;
29854;SDS011;16733;48.738;9.106;2023-08-30T13:06:57;6.20;;;3.78;;
29854;SDS011;16733;48.738;9.106;2023-08-30T13:09:23;5.97;;;2.95;;
29854;SDS011;16733;48.738;9.106;2023-08-30T13:11:49;7.00;;;3.92;;
29854;SDS011;16733;48.738;9.106;2023-08-30T13:14:15;5.90;;;2.53;;
29854;SDS011;16733;48.738;9.106;2023-08-30T13:16:41;4.28;;;3.20;;
29854;SDS011;16733;48.738;9.106;2023-08-30T13:19:07;2.55;;;2.10;;
29854;SDS011;16733;48.738;9.106;2023-08-30T13:21:33;2.35;;;2.03;;
29854;SDS011;16733;48.738;9.106;2023-08-30T13:23:59;4.60;;;2.63;;
29854;SDS011;16733;48.738;9.106;2023-08-30T13:26:25;3.22;;;1.60;;
29854;SDS011;16733;48.738;9.106;2023-08-30T13:28:51;2.90;;;1.73;;
29854;SDS011;16733;48.738;9.106;2023-08-30T13:31:18;2.25;;;2.05;;
29854;SDS011;16733;48.738;9.106;2023-08-30T13:33:44;3.85;;;2.70;;
29854;SDS011;16733;48.738;9.106;2023-08-30T13:36:10;3.28;;;2.53;;
29854;SDS011;16733;48.738;9.106;2023-08-30T13:38:36;3.78;;;2.10;;
29854;SDS011;16733;48.738;9.106;2023-08-30T13:41:02;3.20;;;2.17;;
29854;SDS011;16733;48.738;9.106;2023-08-30T13:43:29;2.13;;;1.92;;
29854;SDS011;16733;48.738;9.106;2023-08-30T13:45:59;5.05;;;2.00;;
29854;SDS011;16733;48.738;9.106;2023-08-30T13:48:25;3.35;;;2.35;;
29854;SDS011;16733;48.738;9.106;2023-08-30T13:50:51;7.88;;;2.47;;
29854;SDS011;16733;48.738;9.106;2023-08-30T13:53:17;5.53;;;1.92;;
29854;SDS011;16733;48.738;9.106;2023-08-30T13:55:46;3.00;;;1.73;;
29854;SDS011;16733;48.738;9.106;2023-08-30T13:58:13;3.08;;;2.00;;
29854;SDS011;16733;48.738;9.106;2023-08-30T14:00:39;2.72;;;2.03;;
29854;SDS011;16733;48.738;9.106;2023-08-30T14:03:05;1.95;;;1.60;;
29854;SDS011;16733;48.738;9.106;2023-08-30T14:05:33;3.47;;;2.00;;
29854;SDS011;16733;48.738;9.106;2023-08-30T14:07:59;4.10;;;2.17;;
29854;SDS011;16733;48.738;9.106;2023-08-30T14:10:25;3.00;;;2.20;;
29854;SDS011;16733;48.738;9.106;2023-08-30T14:12:51;5.13;;;2.20;;
29854;SDS011;16733;48.738;9.106;2023-08-30T14:15:17;3.67;;;2.30;;
29854;SDS011;16733;48.738;9.106;2023-08-30T14:17:43;6.25;;;2.60;;
29854;SDS011;16733;48.738;9.106;2023-08-30T14:20:09;3.83;;;2.50;;
29854;SDS011;16733;48.738;9.106;2023-08-30T14:22:38;5.65;;;2.17;;
29854;SDS011;16733;48.738;9.106;2023-08-30T14:25:04;6.72;;;2.20;;
29854;SDS011;16733;48.738;9.106;2023-08-30T14:27:30;1.80;;;1.58;;
29854;SDS011;16733;48.738;9.106;2023-08-30T14:29:56;2.85;;;1.90;;
29854;SDS011;16733;48.738;9.106;2023-08-30T14:32:23;2.13;;;1.55;;
29854;SDS011;16733;48.738;9.106;2023-08-30T14:34:51;2.03;;;1.75;;
29854;SDS011;16733;48.738;9.106;2023-08-30T14:37:17;2.38;;;1.40;;
29854;SDS011;16733;48.738;9.106;2023-08-30T14:39:43;3.08;;;1.60;;
29854;SDS011;16733;48.738;9.106;2023-08-30T14:42:09;1.85;;;1.63;;
29854;SDS011;16733;48.738;9.106;2023-08-30T14:44:35;1.92;;;1.63;;
29854;SDS011;16733;48.738;9.106;2023-08-30T14:47:01;1.92;;;1.70;;
29854;SDS011;16733;48.738;9.106;2023-08-30T14:49:27;4.30;;;1.73;;
29854;SDS011;16733;48.738;9.106;2023-08-30T14:51:56;2.20;;;2.00;;
29854;SDS011;16733;48.738;9.106;2023-08-30T14:54:22;2.15;;;1.95;;
29854;SDS011;16733;48.738;9.106;2023-08-30T14:56:48;3.65;;;1.92;;